createdAt,value
2023-01-30T00:01:00.749Z,79.21
2023-01-30T00:03:32.278Z,79.77
2023-01-30T00:05:59.202Z,79.46
2023-01-30T00:08:26.792Z,79.33
2023-01-30T00:10:54.480Z,79.50
2023-01-30T00:13:21.676Z,80.05
2023-01-30T00:15:49.471Z,80.11
2023-01-30T00:18:16.790Z,79.76
2023-01-30T00:20:48.485Z,79.70
2023-01-30T00:23:15.337Z,79.78
2023-01-30T00:25:45.761Z,79.67
2023-01-30T00:28:12.747Z,80.24
2023-01-30T00:30:39.572Z,79.71
2023-01-30T00:33:06.774Z,79.81
2023-01-30T00:35:33.626Z,80.10
2023-01-30T00:38:02.112Z,79.76
2023-01-30T00:40:29.927Z,80.06
2023-01-30T00:42:56.740Z,79.92
2023-01-30T00:45:23.862Z,79.88
2023-01-30T00:47:51.782Z,80.20
2023-01-30T00:50:19.350Z,80.43
2023-01-30T00:52:46.251Z,79.89
2023-01-30T00:55:14.690Z,79.87
2023-01-30T00:57:42.301Z,79.68
2023-01-30T01:00:11.276Z,79.88
2023-01-30T01:02:43.235Z,80.08
2023-01-30T01:05:11.270Z,79.55
2023-01-30T01:07:38.049Z,79.44
2023-01-30T01:10:06.454Z,79.29
2023-01-30T01:12:34.650Z,79.72
2023-01-30T01:15:04.162Z,80.23
2023-01-30T01:17:31.149Z,80.91
2023-01-30T01:20:03.569Z,80.61
2023-01-30T01:22:31.095Z,80.54
2023-01-30T01:24:57.918Z,80.35
2023-01-30T01:27:25.708Z,80.61
2023-01-30T01:29:54.906Z,80.26
2023-01-30T01:32:23.265Z,80.73
2023-01-30T01:34:50.998Z,80.47
2023-01-30T01:37:19.249Z,80.36
2023-01-30T01:39:49.310Z,80.68
2023-01-30T01:42:17.684Z,80.73
2023-01-30T01:45:19.543Z,81.12
2023-01-30T01:48:00.270Z,80.38
2023-01-30T01:50:37.499Z,81.08
2023-01-30T01:53:06.277Z,81.63
2023-01-30T01:55:33.885Z,82.18
2023-01-30T01:58:11.006Z,82.36
2023-01-30T02:00:39.784Z,82.22
2023-01-30T02:03:15.253Z,82.19
2023-01-30T02:05:52.976Z,81.90
2023-01-30T02:08:29.166Z,81.01
2023-01-30T02:11:03.742Z,80.77
2023-01-30T02:13:32.339Z,79.84
2023-01-30T02:16:05.757Z,80.14
2023-01-30T02:18:38.263Z,79.65
2023-01-30T02:21:53.400Z,79.41
2023-01-30T02:24:53.473Z,79.59
2023-01-30T02:28:17.093Z,79.53
2023-01-30T02:31:27.469Z,79.27
2023-01-30T02:34:27.182Z,79.47
2023-01-30T02:37:14.038Z,79.04
2023-01-30T02:40:01.242Z,78.41
2023-01-30T02:42:38.615Z,78.42
2023-01-30T02:45:22.713Z,78.39
2023-01-30T02:48:02.009Z,77.85
2023-01-30T02:50:36.659Z,77.30
2023-01-30T02:53:11.357Z,77.18
2023-01-30T02:55:45.426Z,77.48
2023-01-30T02:58:23.246Z,77.50
2023-01-30T03:01:46.878Z,78.48
2023-01-30T03:04:49.418Z,78.67
2023-01-30T03:07:41.435Z,78.77
2023-01-30T03:10:30.127Z,79.34
2023-01-30T03:13:14.855Z,78.56
2023-01-30T03:15:54.297Z,78.95
2023-01-30T03:18:22.768Z,78.59
2023-01-30T03:20:52.495Z,79.66
2023-01-30T03:23:22.273Z,79.37
2023-01-30T03:25:53.056Z,79.59
2023-01-30T03:28:21.243Z,80.16
2023-01-30T03:30:58.211Z,79.71
2023-01-30T03:33:25.197Z,79.63
2023-01-30T03:35:56.578Z,79.63
2023-01-30T03:38:24.043Z,79.26
2023-01-30T03:40:50.958Z,78.96
2023-01-30T03:43:17.930Z,79.09
2023-01-30T03:45:44.997Z,78.75
2023-01-30T03:48:11.929Z,79.00
2023-01-30T03:50:38.733Z,78.18
2023-01-30T03:53:07.817Z,77.90
2023-01-30T03:55:35.325Z,77.69
2023-01-30T03:58:02.832Z,77.46
2023-01-30T04:00:32.685Z,76.73
2023-01-30T04:02:59.912Z,76.82
2023-01-30T04:05:28.006Z,76.92
2023-01-30T04:08:01.946Z,76.88
2023-01-30T04:10:30.140Z,76.71
2023-01-30T04:12:57.241Z,76.26
2023-01-30T04:15:24.094Z,76.92
2023-01-30T04:18:00.455Z,76.23
2023-01-30T04:20:41.404Z,76.91
2023-01-30T04:23:08.350Z,76.54
2023-01-30T04:25:36.707Z,76.55
2023-01-30T04:28:08.023Z,76.07
2023-01-30T04:30:37.643Z,75.63
2023-01-30T04:33:23.573Z,76.43
2023-01-30T04:35:54.201Z,76.67
2023-01-30T04:38:22.895Z,76.04
2023-01-30T04:40:52.992Z,76.54
2023-01-30T04:43:21.857Z,76.56
2023-01-30T04:46:16.255Z,76.31
2023-01-30T04:48:43.111Z,76.41
2023-01-30T04:51:10.095Z,76.26
2023-01-30T04:53:38.297Z,76.13
2023-01-30T04:56:07.709Z,76.59
2023-01-30T04:58:34.674Z,76.86
2023-01-30T05:01:21.450Z,76.81
2023-01-30T05:03:50.550Z,76.79
2023-01-30T05:06:17.466Z,77.41
2023-01-30T05:08:46.806Z,78.32
2023-01-30T05:11:15.170Z,78.38
2023-01-30T05:13:41.943Z,78.19
2023-01-30T05:16:08.753Z,78.19
2023-01-30T05:18:35.777Z,77.90
2023-01-30T05:21:05.601Z,77.67
2023-01-30T05:23:39.168Z,77.54
2023-01-30T05:26:13.484Z,78.22
2023-01-30T05:28:42.838Z,79.29
2023-01-30T05:31:15.656Z,80.95
2023-01-30T05:33:42.559Z,82.23
2023-01-30T05:36:15.538Z,82.88
2023-01-30T05:38:43.856Z,82.67
2023-01-30T05:41:12.979Z,83.25
2023-01-30T05:43:41.995Z,82.68
2023-01-30T05:46:13.826Z,82.40
2023-01-30T05:48:40.770Z,81.72
2023-01-30T05:51:16.595Z,81.63
2023-01-30T05:53:43.407Z,81.83
2023-01-30T05:56:10.362Z,81.26
2023-01-30T05:58:37.375Z,81.34
2023-01-30T06:01:08.840Z,80.42
2023-01-30T06:03:36.524Z,79.49
2023-01-30T06:06:05.993Z,79.32
2023-01-30T06:08:33.567Z,79.52
2023-01-30T06:11:01.094Z,78.61
2023-01-30T06:13:31.171Z,78.31
2023-01-30T06:16:01.872Z,78.84
2023-01-30T06:21:28.668Z,78.02
2023-01-30T06:23:55.490Z,77.87
2023-01-30T06:26:22.289Z,77.25
2023-01-30T06:28:49.245Z,77.34
2023-01-30T06:31:16.366Z,77.11
2023-01-30T06:33:44.621Z,76.65
2023-01-30T06:36:11.438Z,76.44
2023-01-30T06:38:38.259Z,76.03
2023-01-30T06:41:06.198Z,75.90
2023-01-30T06:43:33.106Z,76.43
2023-01-30T06:46:00.356Z,76.83
2023-01-30T06:48:27.309Z,77.56
2023-01-30T06:50:55.566Z,77.68
2023-01-30T06:53:22.487Z,77.74
2023-01-30T06:55:49.683Z,78.02
2023-01-30T06:58:16.449Z,78.26
2023-01-30T07:00:43.496Z,77.84
2023-01-30T07:03:11.452Z,78.07
2023-01-30T07:05:39.079Z,78.15
2023-01-30T07:08:07.419Z,77.88
2023-01-30T07:10:34.727Z,77.91
2023-01-30T07:13:01.956Z,78.11
2023-01-30T07:15:29.362Z,78.32
2023-01-30T07:17:56.542Z,78.55
2023-01-30T07:20:24.752Z,77.97
2023-01-30T07:22:53.781Z,78.05
2023-01-30T07:25:25.427Z,78.24
2023-01-30T07:27:53.016Z,78.02
2023-01-30T07:30:20.488Z,78.20
2023-01-30T07:32:50.569Z,77.74
2023-01-30T07:35:17.533Z,77.77
2023-01-30T07:37:46.088Z,77.38
2023-01-30T07:40:14.274Z,77.46
2023-01-30T07:42:43.048Z,77.08
2023-01-30T07:45:11.389Z,77.04
2023-01-30T07:47:38.188Z,77.80
2023-01-30T07:50:07.168Z,77.27
2023-01-30T07:52:33.930Z,77.19
2023-01-30T07:55:01.708Z,77.32
2023-01-30T07:57:30.137Z,77.93
2023-01-30T07:59:58.401Z,78.31
2023-01-30T08:02:25.383Z,78.80
2023-01-30T08:04:52.322Z,79.21
2023-01-30T08:07:19.079Z,79.80
2023-01-30T08:09:45.831Z,80.22
2023-01-30T08:12:12.680Z,80.41
2023-01-30T08:14:39.554Z,80.06
2023-01-30T08:17:07.671Z,79.97
2023-01-30T08:19:34.430Z,80.01
2023-01-30T08:22:01.406Z,79.79
2023-01-30T08:24:28.258Z,79.59
2023-01-30T08:26:55.071Z,79.47
2023-01-30T08:29:22.262Z,79.37
2023-01-30T08:31:49.424Z,79.73
2023-01-30T08:34:17.569Z,79.02
2023-01-30T08:36:44.466Z,79.14
2023-01-30T08:39:11.310Z,78.94
2023-01-30T08:41:38.059Z,78.52
2023-01-30T08:44:05.996Z,78.38
2023-01-30T08:46:32.897Z,78.37
2023-01-30T08:48:59.720Z,78.60
2023-01-30T08:51:28.001Z,78.56
2023-01-30T08:53:54.781Z,78.22
2023-01-30T08:56:21.820Z,78.50
2023-01-30T08:58:48.652Z,78.20
2023-01-30T09:01:16.111Z,77.92
2023-01-30T09:03:44.227Z,77.85
2023-01-30T09:06:11.092Z,78.32
2023-01-30T09:08:39.515Z,77.88
2023-01-30T09:11:07.007Z,77.71
2023-01-30T09:13:35.341Z,77.45
2023-01-30T09:16:02.489Z,77.79
2023-01-30T09:18:29.296Z,77.55
2023-01-30T09:21:04.498Z,77.52
2023-01-30T09:23:31.597Z,77.71
2023-01-30T09:25:59.764Z,77.39
2023-01-30T09:28:27.004Z,78.02
2023-01-30T09:30:56.732Z,77.70
2023-01-30T09:33:23.835Z,77.79
2023-01-30T09:35:51.404Z,77.78
2023-01-30T09:38:18.991Z,77.94
2023-01-30T09:41:18.956Z,78.60
2023-01-30T09:44:14.659Z,77.77
2023-01-30T09:46:52.982Z,78.01
2023-01-30T09:49:46.888Z,79.91
2023-01-30T09:52:30.747Z,76.45
2023-01-30T09:55:15.512Z,76.38
2023-01-30T09:57:47.283Z,76.71
2023-01-30T10:00:24.924Z,76.71
2023-01-30T10:03:00.601Z,77.87
2023-01-30T10:05:43.624Z,75.96
2023-01-30T10:08:45.707Z,76.20
2023-01-30T10:11:33.588Z,76.27
2023-01-30T10:14:36.713Z,77.02
2023-01-30T10:17:23.871Z,76.94
2023-01-30T10:20:17.229Z,76.93
2023-01-30T10:23:04.571Z,77.09
2023-01-30T10:25:40.630Z,77.02
2023-01-30T10:28:24.810Z,77.33
2023-01-30T10:31:02.157Z,78.30
2023-01-30T10:33:36.701Z,79.24
2023-01-30T10:36:10.707Z,78.68
2023-01-30T10:38:44.635Z,78.39
2023-01-30T10:41:24.052Z,78.24
2023-01-30T10:44:01.960Z,78.61
2023-01-30T10:46:55.312Z,79.02
2023-01-30T10:49:39.270Z,79.14
2023-01-30T10:52:24.816Z,79.41
2023-01-30T10:55:06.985Z,79.92
2023-01-30T10:57:53.076Z,79.78
2023-01-30T11:00:29.762Z,80.37
2023-01-30T11:03:20.128Z,79.46
2023-01-30T11:05:51.000Z,80.13
2023-01-30T11:08:27.170Z,80.10
2023-01-30T11:10:56.394Z,80.18
2023-01-30T11:13:28.927Z,79.48
2023-01-30T11:16:05.149Z,79.89
2023-01-30T11:21:43.574Z,80.34
2023-01-30T11:24:17.783Z,80.34
2023-01-30T11:26:48.763Z,80.86
2023-01-30T11:29:31.880Z,80.62
2023-01-30T11:32:04.394Z,80.28
2023-01-30T11:34:32.778Z,80.02
2023-01-30T11:50:36.282Z,80.56
2023-01-30T11:53:17.275Z,80.27
2023-01-30T11:56:02.181Z,80.47
2023-01-30T12:14:17.580Z,80.75
2023-01-30T12:16:57.685Z,80.36
2023-01-30T12:19:40.014Z,80.61
2023-01-30T12:22:22.797Z,80.79
2023-01-30T12:24:59.159Z,80.78
2023-01-30T12:27:48.816Z,80.98
2023-01-30T12:35:53.081Z,81.29
2023-01-30T12:38:57.107Z,81.23
2023-01-30T12:41:44.037Z,81.29
2023-01-30T12:44:42.319Z,81.44
2023-01-30T12:47:46.567Z,80.83
2023-01-30T12:50:30.790Z,80.65
2023-01-30T12:53:26.393Z,81.33
2023-01-30T12:56:24.937Z,81.18
2023-01-30T12:59:06.118Z,81.41
2023-01-30T13:01:53.168Z,81.95
2023-01-30T13:04:40.040Z,81.02
2023-01-30T13:11:08.228Z,80.96
2023-01-30T13:13:48.997Z,81.18
2023-01-30T13:16:29.792Z,80.66
2023-01-30T13:19:09.716Z,81.27
2023-01-30T13:21:45.991Z,81.48
2023-01-30T13:24:36.325Z,81.49
2023-01-30T13:31:31.513Z,81.22
2023-01-30T13:34:06.244Z,80.99
2023-01-30T13:36:43.274Z,81.29
2023-01-30T13:52:10.527Z,82.06
2023-01-30T13:54:57.286Z,81.77
2023-01-30T13:57:43.023Z,81.85
2023-01-30T14:00:28.148Z,81.82
2023-01-30T14:03:32.237Z,81.46
2023-01-30T14:06:30.958Z,81.64
2023-01-30T14:09:05.480Z,81.08
2023-01-30T14:11:38.701Z,81.52
2023-01-30T14:14:26.803Z,80.62
2023-01-30T14:17:07.449Z,80.02
2023-01-30T14:23:30.213Z,79.72
2023-01-30T14:27:21.518Z,79.73
2023-01-30T14:30:46.227Z,79.08
2023-01-30T14:34:01.621Z,79.23
2023-01-30T14:36:37.124Z,78.98
2023-01-30T14:39:38.002Z,78.89
2023-01-30T14:42:27.449Z,79.09
2023-01-30T14:49:00.154Z,78.88
2023-01-30T14:55:42.812Z,78.76
2023-01-30T14:58:18.617Z,78.77
2023-01-30T15:00:45.595Z,79.25
2023-01-30T15:03:25.285Z,79.27
2023-01-30T15:06:00.126Z,78.77
2023-01-30T15:08:40.735Z,79.35
2023-01-30T15:11:17.741Z,79.05
2023-01-30T15:14:03.770Z,79.04
2023-01-30T15:16:59.206Z,79.04
2023-01-30T15:20:00.733Z,79.26
2023-01-30T15:22:46.841Z,78.95
2023-01-30T15:25:32.249Z,79.21
2023-01-30T15:28:24.234Z,79.23
2023-01-30T15:31:07.860Z,79.73
2023-01-30T15:33:44.640Z,80.01
2023-01-30T15:36:23.076Z,79.87
2023-01-30T15:39:00.200Z,79.40
2023-01-30T15:41:29.393Z,79.46
2023-01-30T15:44:29.886Z,79.96
2023-01-30T15:50:54.890Z,79.70
2023-01-30T16:05:23.195Z,80.17
2023-01-30T16:05:30.628Z,80.08
2023-01-30T16:07:58.823Z,79.67
2023-01-30T16:10:30.449Z,80.07
2023-01-30T16:13:03.960Z,79.68
2023-01-30T16:15:35.854Z,80.33
2023-01-30T16:18:13.163Z,80.46
2023-01-30T16:21:00.210Z,80.66
2023-01-30T16:23:33.412Z,80.45
2023-01-30T16:26:02.142Z,81.13
2023-01-30T16:28:32.250Z,80.70
2023-01-30T16:31:02.367Z,80.30
2023-01-30T16:33:30.780Z,80.57
2023-01-30T16:36:33.931Z,80.43
2023-01-30T16:39:31.096Z,80.44
2023-01-30T16:42:00.022Z,80.45
2023-01-30T16:44:31.511Z,80.38
2023-01-30T16:47:06.168Z,80.46
2023-01-30T16:54:41.775Z,80.69
2023-01-30T16:58:49.476Z,80.95
2023-01-30T17:01:54.000Z,81.10
2023-01-30T17:04:48.682Z,80.93
2023-01-30T17:15:31.121Z,81.14
2023-01-30T17:17:58.383Z,81.06
2023-01-30T17:20:36.254Z,81.36
2023-01-30T17:23:09.531Z,81.63
2023-01-30T17:29:02.282Z,81.90
2023-01-30T17:31:30.568Z,81.61
2023-01-30T17:33:57.835Z,82.19
2023-01-30T17:36:28.350Z,82.96
2023-01-30T17:38:59.679Z,83.17
2023-01-30T17:41:29.600Z,83.66
2023-01-30T17:43:56.850Z,83.08
2023-01-30T17:46:36.152Z,83.69
2023-01-30T17:49:03.442Z,83.90
2023-01-30T17:51:30.216Z,84.06
2023-01-30T17:53:57.098Z,84.06
2023-01-30T17:56:32.257Z,84.46
2023-01-30T17:58:59.880Z,84.50
2023-01-30T18:01:27.109Z,84.50
2023-01-30T18:04:08.793Z,84.25
2023-01-30T18:06:39.706Z,84.28
2023-01-30T18:09:16.510Z,84.50
2023-01-30T18:11:46.653Z,84.29
2023-01-30T18:14:14.841Z,84.56
2023-01-30T18:16:42.835Z,84.50
2023-01-30T18:19:15.501Z,84.11
2023-01-30T18:21:42.974Z,84.20
2023-01-30T18:24:09.856Z,84.10
2023-01-30T18:26:37.314Z,84.27
2023-01-30T18:29:04.324Z,84.64
2023-01-30T18:31:32.777Z,83.48
2023-01-30T18:33:59.786Z,84.21
2023-01-30T18:36:27.949Z,84.18
2023-01-30T18:38:54.945Z,84.11
2023-01-30T18:41:24.383Z,84.05
2023-01-30T18:43:55.440Z,83.89
2023-01-30T18:46:22.527Z,83.94
2023-01-30T18:48:49.406Z,84.06
2023-01-30T18:51:19.367Z,83.88
2023-01-30T18:53:50.701Z,83.76
2023-01-30T18:56:20.846Z,84.23
2023-01-30T18:58:47.692Z,83.86
2023-01-30T19:01:17.944Z,84.13
2023-01-30T19:03:45.173Z,83.80
2023-01-30T19:06:14.882Z,84.44
2023-01-30T19:08:42.102Z,83.66
2023-01-30T19:11:14.919Z,83.55
2023-01-30T19:13:41.682Z,83.72
2023-01-30T19:16:09.127Z,83.76
2023-01-30T19:18:35.983Z,83.93
2023-01-30T19:21:03.816Z,83.61
2023-01-30T19:23:31.163Z,83.85
2023-01-30T19:25:58.963Z,83.66
2023-01-30T19:28:31.714Z,83.67
2023-01-30T19:30:58.838Z,83.60
2023-01-30T19:33:25.661Z,83.27
2023-01-30T19:35:52.527Z,83.34
2023-01-30T19:38:21.891Z,83.10
2023-01-30T19:40:48.680Z,83.40
2023-01-30T19:43:15.477Z,83.40
2023-01-30T19:45:43.591Z,83.06
2023-01-30T19:48:11.306Z,83.02
2023-01-30T19:50:38.127Z,82.84
2023-01-30T19:53:05.207Z,83.18
2023-01-30T19:55:33.057Z,83.21
2023-01-30T19:57:59.987Z,83.35
2023-01-30T20:00:26.865Z,83.50
2023-01-30T20:03:00.955Z,83.18
2023-01-30T20:05:27.863Z,83.44
2023-01-30T20:07:59.086Z,83.32
2023-01-30T20:10:28.579Z,83.70
2023-01-30T20:12:55.712Z,83.65
2023-01-30T20:15:57.359Z,83.29
2023-01-30T20:24:49.427Z,82.91
2023-01-30T20:28:01.637Z,82.46
2023-01-30T20:36:50.786Z,82.34
2023-01-30T20:40:17.480Z,82.25
2023-01-30T20:42:58.435Z,82.10
2023-01-30T20:45:25.572Z,82.12
2023-01-30T20:47:52.448Z,82.54
2023-01-30T20:50:23.617Z,82.06
2023-01-30T20:52:53.416Z,82.14
2023-01-30T20:55:22.000Z,82.17
2023-01-30T20:57:49.060Z,82.49
2023-01-30T21:31:39.228Z,82.47
2023-01-30T21:36:27.318Z,82.17
